Time;durP1;ratioP1;P1;durP2;ratioP2;P2;SDS_P1;SDS_P2;PMS_P1;PMS_P2;Temp;Humidity;BMP_temperature;BMP_pressure;BME280_temperature;BME280_humidity;BME280_pressure;Samples;Min_cycle;Max_cycle;Signal;HPM_P1;HPM_P2
2022/05/07 00:00:42;;;;;;;;;;;12.80;65.80;;;;;;5075099;28;19908;-72
2022/05/07 00:03:07;;;;;;;;;;;12.90;65.80;;;;;;5075004;28;19946;-71
2022/05/07 00:05:33;;;;;;;;;;;12.70;65.80;;;;;;5074692;28;19919;-72
2022/05/07 00:07:58;;;;;;;;;;;12.70;65.90;;;;;;5075040;28;20373;-72
2022/05/07 00:10:24;;;;;;;;;;;12.70;65.80;;;;;;5074566;28;19923;-71
2022/05/07 00:12:50;;;;;;;;;;;12.60;66.00;;;;;;5073593;28;19913;-71
2022/05/07 00:15:15;;;;;;;;;;;12.60;66.20;;;;;;5073021;28;19920;-72
2022/05/07 00:20:25;;;;;;;;;;;12.50;66.60;;;;;;5074398;28;20364;-72
2022/05/07 00:22:50;;;;;;;;;;;12.40;66.80;;;;;;5074742;28;19924;-71
2022/05/07 00:25:16;;;;;;;;;;;12.40;67.00;;;;;;5074194;28;19915;-70
2022/05/07 00:27:41;;;;;;;;;;;12.50;67.40;;;;;;5074603;28;20253;-71
2022/05/07 00:30:07;;;;;;;;;;;12.30;67.20;;;;;;5074036;28;20265;-71
2022/05/07 00:32:33;;;;;;;;;;;12.30;67.60;;;;;;5074545;28;19974;-71
2022/05/07 00:34:58;;;;;;;;;;;12.30;67.70;;;;;;5074033;28;20455;-71
2022/05/07 00:37:24;;;;;;;;;;;12.30;67.70;;;;;;5074342;28;19924;-71
2022/05/07 00:39:50;;;;;;;;;;;12.30;67.70;;;;;;5074155;28;19908;-71
2022/05/07 00:42:15;;;;;;;;;;;12.40;67.60;;;;;;5072639;28;19970;-71
2022/05/07 00:44:41;;;;;;;;;;;12.50;67.60;;;;;;5074217;28;19995;-71
2022/05/07 00:47:24;;;;;;;;;;;12.50;67.60;;;;;;5072912;28;19916;-70
2022/05/07 00:49:50;;;;;;;;;;;12.40;67.80;;;;;;5073856;28;19908;-71
2022/05/07 00:52:18;;;;;;;;;;;12.50;68.10;;;;;;5073683;28;19981;-71
2022/05/07 00:54:44;;;;;;;;;;;12.40;67.90;;;;;;5073800;28;19916;-72
2022/05/07 00:57:11;;;;;;;;;;;12.60;67.90;;;;;;5073449;28;19921;-72
2022/05/07 00:59:36;;;;;;;;;;;12.50;68.20;;;;;;5073659;28;19936;-72
2022/05/07 01:02:02;;;;;;;;;;;12.50;68.10;;;;;;5073539;28;19971;-72
2022/05/07 01:04:27;;;;;;;;;;;12.50;68.30;;;;;;5073535;28;20011;-71
2022/05/07 01:06:53;;;;;;;;;;;12.50;68.30;;;;;;5073837;28;19989;-71
2022/05/07 01:09:19;;;;;;;;;;;12.50;68.50;;;;;;5073610;28;19916;-71
2022/05/07 01:11:45;;;;;;;;;;;12.50;68.40;;;;;;5073687;28;19931;-71
2022/05/07 01:14:10;;;;;;;;;;;12.50;68.60;;;;;;5073510;28;19909;-72
2022/05/07 01:16:36;;;;;;;;;;;12.50;68.70;;;;;;5071933;28;20007;-72
2022/05/07 01:19:01;;;;;;;;;;;12.50;68.70;;;;;;5073132;28;19971;-72
2022/05/07 01:21:28;;;;;;;;;;;12.50;68.90;;;;;;5073138;28;20400;-71
2022/05/07 01:23:54;;;;;;;;;;;12.30;68.80;;;;;;5073244;28;19913;-71
2022/05/07 01:26:21;;;;;;;;;;;12.50;69.10;;;;;;5073114;28;19970;-71
2022/05/07 01:28:47;;;;;;;;;;;12.50;69.20;;;;;;5071721;28;20391;-71
2022/05/07 01:31:12;;;;;;;;;;;12.50;69.30;;;;;;5073030;28;19932;-72
2022/05/07 01:33:38;;;;;;;;;;;12.40;69.40;;;;;;5071552;28;19909;-72
2022/05/07 01:36:07;;;;;;;;;;;12.40;69.40;;;;;;5078223;28;19917;-71
2022/05/07 01:38:34;;;;;;;;;;;12.40;69.60;;;;;;5093321;28;19995;-71
2022/05/07 01:40:59;;;;;;;;;;;12.40;69.50;;;;;;5092907;28;20364;-71
2022/05/07 01:43:27;;;;;;;;;;;12.40;69.70;;;;;;5093160;28;19957;-71
2022/05/07 01:45:53;;;;;;;;;;;12.40;69.60;;;;;;5092947;28;20011;-72
2022/05/07 01:48:19;;;;;;;;;;;12.40;69.70;;;;;;5093039;28;20229;-72
2022/05/07 01:50:45;;;;;;;;;;;12.40;69.70;;;;;;5092866;28;19965;-71
2022/05/07 01:53:14;;;;;;;;;;;12.40;69.90;;;;;;5093429;28;19912;-71
2022/05/07 01:55:40;;;;;;;;;;;12.40;70.00;;;;;;5092978;28;19915;-70
2022/05/07 01:58:06;;;;;;;;;;;12.30;70.00;;;;;;5093277;28;19916;-71
2022/05/07 02:00:33;;;;;;;;;;;12.40;70.20;;;;;;5092697;28;19915;-71
2022/05/07 02:02:59;;;;;;;;;;;12.40;70.20;;;;;;5093286;28;20378;-71
2022/05/07 02:05:25;;;;;;;;;;;12.30;70.20;;;;;;5092607;28;20371;-71
2022/05/07 02:07:51;;;;;;;;;;;12.40;70.40;;;;;;5093329;28;19928;-71
2022/05/07 02:10:17;;;;;;;;;;;12.20;70.70;;;;;;5090483;28;20010;-70
2022/05/07 02:12:42;;;;;;;;;;;12.20;70.60;;;;;;5093141;28;19947;-71
2022/05/07 02:15:08;;;;;;;;;;;12.20;70.70;;;;;;5092532;28;20448;-71
2022/05/07 02:17:33;;;;;;;;;;;12.20;71.40;;;;;;5092533;28;20350;-71
2022/05/07 02:19:59;;;;;;;;;;;12.10;70.70;;;;;;5092355;28;19914;-71
2022/05/07 02:22:24;;;;;;;;;;;12.20;70.90;;;;;;5092754;28;20356;-71
2022/05/07 02:24:50;;;;;;;;;;;12.10;71.10;;;;;;5092239;28;19908;-71
2022/05/07 02:27:16;;;;;;;;;;;12.10;71.00;;;;;;5092083;28;19916;-71
2022/05/07 02:29:42;;;;;;;;;;;12.10;71.30;;;;;;5090904;28;20003;-70
2022/05/07 02:32:07;;;;;;;;;;;12.00;71.70;;;;;;5092372;28;19920;-70
2022/05/07 02:34:34;;;;;;;;;;;11.90;72.00;;;;;;5092385;28;19915;-70
2022/05/07 02:36:59;;;;;;;;;;;11.80;72.10;;;;;;5090712;28;19970;-70
2022/05/07 02:39:25;;;;;;;;;;;11.80;72.30;;;;;;5092095;28;19913;-71
2022/05/07 02:44:34;;;;;;;;;;;11.80;72.60;;;;;;5092270;28;19946;-71
2022/05/07 02:47:00;;;;;;;;;;;11.80;72.90;;;;;;5092176;28;19957;-71
2022/05/07 02:49:25;;;;;;;;;;;11.80;73.10;;;;;;5092018;28;19948;-70
2022/05/07 02:51:51;;;;;;;;;;;11.70;73.40;;;;;;5090490;28;19920;-71
2022/05/07 02:54:17;;;;;;;;;;;11.70;73.60;;;;;;5092108;28;19908;-71
2022/05/07 02:56:42;;;;;;;;;;;11.70;73.60;;;;;;5091628;28;20399;-71
2022/05/07 02:59:07;;;;;;;;;;;11.70;73.70;;;;;;5091731;28;19961;-70
2022/05/07 03:01:33;;;;;;;;;;;11.60;73.90;;;;;;5091640;28;19923;-71
2022/05/07 03:03:58;;;;;;;;;;;11.60;74.30;;;;;;5090198;28;19971;-71
2022/05/07 03:06:24;;;;;;;;;;;11.60;74.60;;;;;;5091613;28;19920;-71
2022/05/07 03:08:49;;;;;;;;;;;11.50;74.80;;;;;;5091742;28;20327;-71
2022/05/07 03:11:15;;;;;;;;;;;11.60;75.00;;;;;;5091434;28;19916;-72
2022/05/07 03:13:40;;;;;;;;;;;13.00;75.60;;;;;;5091729;28;19912;-71
2022/05/07 03:16:06;;;;;;;;;;;11.60;75.10;;;;;;5090261;28;19916;-71
2022/05/07 03:18:32;;;;;;;;;;;11.60;75.00;;;;;;5091364;28;19963;-70
2022/05/07 03:20:58;;;;;;;;;;;11.50;75.10;;;;;;5091220;28;19915;-71
2022/05/07 03:23:27;;;;;;;;;;;11.60;75.10;;;;;;5091615;28;19913;-71
2022/05/07 03:25:53;;;;;;;;;;;11.60;75.20;;;;;;5091423;28;20363;-71
2022/05/07 03:28:18;;;;;;;;;;;11.70;75.30;;;;;;5090242;28;19951;-72
2022/05/07 03:30:44;;;;;;;;;;;11.70;75.30;;;;;;5091328;28;20367;-72
2022/05/07 03:33:09;;;;;;;;;;;11.70;75.50;;;;;;5091599;28;19908;-72
2022/05/07 03:35:35;;;;;;;;;;;11.60;75.50;;;;;;5091439;28;19958;-70
2022/05/07 03:38:00;;;;;;;;;;;11.60;75.50;;;;;;5091916;28;19965;-71
2022/05/07 03:40:27;;;;;;;;;;;11.60;75.60;;;;;;5091435;28;19908;-71
2022/05/07 03:42:53;;;;;;;;;;;11.60;75.80;;;;;;5091072;28;19923;-71
2022/05/07 03:45:19;;;;;;;;;;;11.70;75.80;;;;;;5091347;28;19908;-71
2022/05/07 03:47:45;;;;;;;;;;;11.70;75.70;;;;;;5091570;28;19965;-71
2022/05/07 03:50:10;;;;;;;;;;;11.70;76.00;;;;;;5091414;28;20727;-71
2022/05/07 03:55:20;;;;;;;;;;;11.70;75.70;;;;;;5091139;28;19937;-70
2022/05/07 03:57:45;;;;;;;;;;;11.70;76.10;;;;;;5091400;28;20016;-70
2022/05/07 04:00:11;;;;;;;;;;;11.70;76.00;;;;;;5091044;28;20015;-70
2022/05/07 04:02:36;;;;;;;;;;;11.70;75.90;;;;;;5089603;28;19920;-70
2022/05/07 04:05:02;;;;;;;;;;;11.70;75.80;;;;;;5090982;28;20347;-70
2022/05/07 04:07:28;;;;;;;;;;;11.80;75.80;;;;;;5091287;28;19920;-70
2022/05/07 04:09:55;;;;;;;;;;;11.70;75.80;;;;;;5090939;28;20070;-71
2022/05/07 04:12:21;;;;;;;;;;;11.70;75.70;;;;;;5091178;28;19917;-71
2022/05/07 04:14:46;;;;;;;;;;;11.70;75.80;;;;;;5090882;28;19956;-70
2022/05/07 04:17:12;;;;;;;;;;;11.70;75.90;;;;;;5091105;28;19923;-70
2022/05/07 04:19:37;;;;;;;;;;;11.60;75.70;;;;;;5090788;28;20007;-71
2022/05/07 04:22:03;;;;;;;;;;;11.70;76.00;;;;;;5089537;28;19928;-70
2022/05/07 04:24:28;;;;;;;;;;;11.60;75.70;;;;;;5090868;28;20035;-70
2022/05/07 04:26:54;;;;;;;;;;;11.70;75.70;;;;;;5091002;28;20509;-70
2022/05/07 04:29:20;;;;;;;;;;;11.60;75.70;;;;;;5090759;28;19914;-70
2022/05/07 04:31:46;;;;;;;;;;;11.60;75.90;;;;;;5090933;28;20011;-70
2022/05/07 04:34:11;;;;;;;;;;;11.70;75.70;;;;;;5094420;28;20360;-70
2022/05/07 04:36:37;;;;;;;;;;;11.90;75.50;;;;;;5094650;28;19923;-70
2022/05/07 04:39:03;;;;;;;;;;;11.80;75.40;;;;;;5094400;28;19912;-70
2022/05/07 04:41:28;;;;;;;;;;;11.80;75.80;;;;;;5094565;28;19916;-69
2022/05/07 04:43:53;;;;;;;;;;;11.80;75.70;;;;;;5094559;28;19916;-70
2022/05/07 04:46:19;;;;;;;;;;;12.10;75.60;;;;;;5094431;28;20363;-71
2022/05/07 04:48:46;;;;;;;;;;;12.30;75.30;;;;;;5094270;28;19916;-69
2022/05/07 04:51:11;;;;;;;;;;;12.50;74.80;;;;;;5094395;28;19927;-70
2022/05/07 04:53:37;;;;;;;;;;;12.60;74.80;;;;;;5094164;28;20369;-70
2022/05/07 04:56:03;;;;;;;;;;;12.70;73.80;;;;;;5094162;28;19928;-70
2022/05/07 04:58:28;;;;;;;;;;;12.70;73.90;;;;;;5092686;28;19915;-70
2022/05/07 05:00:54;;;;;;;;;;;12.90;74.10;;;;;;5093927;28;19912;-69
2022/05/07 05:03:19;;;;;;;;;;;12.90;73.80;;;;;;5094141;28;20380;-70
2022/05/07 05:05:45;;;;;;;;;;;13.00;73.70;;;;;;5093832;28;20002;-69
2022/05/07 05:08:10;;;;;;;;;;;13.10;73.20;;;;;;5093744;28;20288;-70
2022/05/07 05:10:36;;;;;;;;;;;13.30;73.40;;;;;;5092473;28;19992;-70
2022/05/07 05:13:01;;;;;;;;;;;13.40;72.90;;;;;;5093531;28;19916;-69
2022/05/07 05:15:27;;;;;;;;;;;13.50;73.20;;;;;;5093595;28;19951;-70
2022/05/07 05:17:52;;;;;;;;;;;13.60;72.60;;;;;;5093648;28;19924;-70
2022/05/07 05:20:18;;;;;;;;;;;13.70;72.80;;;;;;5093338;28;20015;-70
2022/05/07 05:22:50;;;;;;;;;;;13.70;72.60;;;;;;5093985;28;20092;-70
2022/05/07 05:25:16;;;;;;;;;;;13.80;73.10;;;;;;5093438;28;19908;-69
2022/05/07 05:27:42;;;;;;;;;;;13.80;73.30;;;;;;5093622;28;19920;-70
2022/05/07 05:30:08;;;;;;;;;;;13.90;73.60;;;;;;5093369;28;20374;-70
2022/05/07 05:32:33;;;;;;;;;;;13.90;73.20;;;;;;5093597;28;19973;-70
2022/05/07 05:34:59;;;;;;;;;;;14.00;73.60;;;;;;5093121;28;20415;-70
2022/05/07 05:37:24;;;;;;;;;;;14.00;72.70;;;;;;5093671;28;19958;-70
2022/05/07 05:39:49;;;;;;;;;;;14.00;72.60;;;;;;5091706;28;19908;-71
2022/05/07 05:42:15;;;;;;;;;;;13.80;73.00;;;;;;5093382;28;20307;-70
2022/05/07 05:44:41;;;;;;;;;;;13.90;73.60;;;;;;5092950;28;19915;-71
2022/05/07 05:47:07;;;;;;;;;;;13.90;73.20;;;;;;5093316;28;19916;-71
2022/05/07 05:49:33;;;;;;;;;;;14.10;73.60;;;;;;5093038;28;20275;-71
2022/05/07 05:52:03;;;;;;;;;;;14.30;73.50;;;;;;5093297;28;20420;-70
2022/05/07 05:54:29;;;;;;;;;;;14.40;72.50;;;;;;5091558;28;19908;-70
2022/05/07 05:56:54;;;;;;;;;;;14.50;73.30;;;;;;5091807;28;20368;-71
2022/05/07 05:59:20;;;;;;;;;;;14.50;72.50;;;;;;5091536;28;19908;-71
2022/05/07 06:01:45;;;;;;;;;;;14.60;73.10;;;;;;5092609;28;19958;-70
2022/05/07 06:04:11;;;;;;;;;;;14.50;72.00;;;;;;5092848;28;19923;-71
2022/05/07 06:06:36;;;;;;;;;;;14.70;72.10;;;;;;5092890;28;20364;-71
2022/05/07 06:09:02;;;;;;;;;;;14.80;71.90;;;;;;5092930;28;19912;-71
2022/05/07 06:11:28;;;;;;;;;;;14.90;71.30;;;;;;5092825;28;19916;-71
2022/05/07 06:13:53;;;;;;;;;;;15.10;71.10;;;;;;5092696;28;19940;-71
2022/05/07 06:16:19;;;;;;;;;;;15.10;71.20;;;;;;5092459;28;20383;-70
2022/05/07 06:18:44;;;;;;;;;;;15.20;71.10;;;;;;5092179;28;19924;-70
2022/05/07 06:21:10;;;;;;;;;;;15.40;70.70;;;;;;5092333;28;19916;-70
2022/05/07 06:23:35;;;;;;;;;;;15.60;69.60;;;;;;5091037;28;20324;-70
2022/05/07 06:28:45;;;;;;;;;;;15.70;68.80;;;;;;5092281;28;19973;-72
2022/05/07 06:31:10;;;;;;;;;;;15.60;69.10;;;;;;5091985;28;19917;-72
2022/05/07 06:33:39;;;;;;;;;;;15.70;68.80;;;;;;5092493;28;19908;-72
2022/05/07 06:36:07;;;;;;;;;;;15.70;68.90;;;;;;5092120;28;20376;-72
2022/05/07 06:38:33;;;;;;;;;;;15.80;69.00;;;;;;5092168;28;19965;-70
2022/05/07 06:41:02;;;;;;;;;;;16.00;68.80;;;;;;5091993;28;19909;-72
2022/05/07 06:43:29;;;;;;;;;;;16.00;68.20;;;;;;5090630;28;19918;-72
2022/05/07 06:45:54;;;;;;;;;;;16.10;67.90;;;;;;5091811;28;20132;-72
2022/05/07 06:48:20;;;;;;;;;;;16.20;68.20;;;;;;5092050;28;19909;-72
2022/05/07 06:50:45;;;;;;;;;;;16.40;68.00;;;;;;5091976;28;19916;-72
2022/05/07 06:53:11;;;;;;;;;;;16.50;67.60;;;;;;5092120;28;19919;-72
2022/05/07 06:55:54;;;;;;;;;;;16.70;67.40;;;;;;5091391;28;19908;-71
2022/05/07 06:58:24;;;;;;;;;;;16.80;67.20;;;;;;5091910;28;19916;-71
2022/05/07 07:00:50;;;;;;;;;;;17.10;67.60;;;;;;5091795;28;19947;-72
2022/05/07 07:03:15;;;;;;;;;;;17.40;67.00;;;;;;5091555;28;19958;-69
2022/05/07 07:05:41;;;;;;;;;;;17.50;66.20;;;;;;5091436;28;19943;-69
2022/05/07 07:08:06;;;;;;;;;;;17.40;66.00;;;;;;5092091;28;20014;-70
2022/05/07 07:10:32;;;;;;;;;;;17.30;66.60;;;;;;5091602;28;20347;-69
2022/05/07 07:12:57;;;;;;;;;;;17.40;66.50;;;;;;5092001;28;19970;-70
2022/05/07 07:15:23;;;;;;;;;;;17.40;66.10;;;;;;5090227;28;19908;-70
2022/05/07 07:17:49;;;;;;;;;;;17.40;66.20;;;;;;5091538;28;20399;-70
2022/05/07 07:20:15;;;;;;;;;;;17.50;66.00;;;;;;5091196;28;19923;-69
2022/05/07 07:22:41;;;;;;;;;;;17.60;66.80;;;;;;5091678;28;19927;-69
2022/05/07 07:25:06;;;;;;;;;;;17.50;66.30;;;;;;5091213;28;20007;-70
2022/05/07 07:27:34;;;;;;;;;;;17.60;66.10;;;;;;5091527;28;19994;-70
2022/05/07 07:29:59;;;;;;;;;;;17.60;65.40;;;;;;5089844;28;19954;-70
2022/05/07 07:32:25;;;;;;;;;;;17.60;65.20;;;;;;5090003;28;20355;-70
2022/05/07 07:34:51;;;;;;;;;;;17.70;66.00;;;;;;5091096;28;20355;-70
2022/05/07 07:37:16;;;;;;;;;;;17.90;65.30;;;;;;5091523;28;19920;-70
2022/05/07 07:39:42;;;;;;;;;;;18.00;64.80;;;;;;5091364;28;19964;-69
2022/05/07 07:42:07;;;;;;;;;;;18.10;64.30;;;;;;5091338;28;19916;-70
2022/05/07 07:44:33;;;;;;;;;;;18.20;63.70;;;;;;5091450;28;20016;-70
2022/05/07 07:49:43;;;;;;;;;;;18.70;63.10;;;;;;5091547;28;20279;-69
2022/05/07 07:52:09;;;;;;;;;;;18.80;63.40;;;;;;5091354;28;20007;-69
2022/05/07 07:54:34;;;;;;;;;;;19.00;61.40;;;;;;5091194;28;19908;-70
2022/05/07 07:57:02;;;;;;;;;;;19.30;60.20;;;;;;5091188;28;19982;-69
2022/05/07 07:59:29;;;;;;;;;;;19.40;60.10;;;;;;5091250;28;19912;-70
2022/05/07 08:01:56;;;;;;;;;;;19.50;60.40;;;;;;5091223;28;19973;-69
2022/05/07 08:04:22;;;;;;;;;;;19.70;60.40;;;;;;5089631;28;20280;-69
2022/05/07 08:11:40;;;;;;;;;;;19.80;60.10;;;;;;5091468;28;19949;-70
2022/05/07 08:12:18;;;;;;;;;;;19.50;60.80;;;;;;5095186;28;20336;-70
2022/05/07 08:14:43;;;;;;;;;;;19.40;60.40;;;;;;5094860;28;19912;-70
2022/05/07 08:17:09;;;;;;;;;;;19.20;60.80;;;;;;5095021;28;19920;-70
2022/05/07 08:19:34;;;;;;;;;;;19.20;60.80;;;;;;5094693;28;19920;-70
2022/05/07 08:22:00;;;;;;;;;;;19.50;60.70;;;;;;5093341;28;19917;-71
2022/05/07 08:24:26;;;;;;;;;;;19.70;59.30;;;;;;5094764;28;20007;-72
2022/05/07 08:26:51;;;;;;;;;;;19.80;58.80;;;;;;5094728;28;19965;-70
2022/05/07 08:29:16;;;;;;;;;;;19.90;58.60;;;;;;5093327;28;19915;-69
2022/05/07 08:31:42;;;;;;;;;;;19.70;58.60;;;;;;5094640;28;20419;-70
2022/05/07 08:34:08;;;;;;;;;;;19.60;58.90;;;;;;5094577;28;20335;-70
2022/05/07 08:36:33;;;;;;;;;;;19.90;58.00;;;;;;5094398;28;19916;-69
2022/05/07 08:38:59;;;;;;;;;;;20.10;57.10;;;;;;5094403;28;19912;-70
2022/05/07 08:41:25;;;;;;;;;;;20.40;57.70;;;;;;5094325;28;19925;-69
2022/05/07 08:43:50;;;;;;;;;;;20.60;57.40;;;;;;5094233;28;19915;-70
2022/05/07 08:46:18;;;;;;;;;;;20.80;56.60;;;;;;5094381;28;19916;-70
2022/05/07 08:48:48;;;;;;;;;;;21.10;56.00;;;;;;5094461;28;19908;-69
2022/05/07 08:51:15;;;;;;;;;;;21.20;55.50;;;;;;5092629;28;19955;-71
2022/05/07 08:53:40;;;;;;;;;;;21.50;56.50;;;;;;5094219;28;19934;-69
2022/05/07 08:56:07;;;;;;;;;;;22.10;55.90;;;;;;5094071;28;20014;-70
2022/05/07 08:58:32;;;;;;;;;;;22.50;53.40;;;;;;5092592;28;19908;-71
2022/05/07 09:01:00;;;;;;;;;;;22.60;53.70;;;;;;5094163;28;19935;-70
2022/05/07 09:03:36;;;;;;;;;;;22.30;53.40;;;;;;5094303;28;20303;-70
2022/05/07 09:06:02;;;;;;;;;;;21.60;54.00;;;;;;5093811;28;19912;-70
2022/05/07 09:08:27;;;;;;;;;;;21.70;53.40;;;;;;5093758;28;19908;-70
2022/05/07 09:10:54;;;;;;;;;;;22.00;52.80;;;;;;5093787;28;19908;-70
2022/05/07 09:13:19;;;;;;;;;;;22.00;53.10;;;;;;5093865;28;19908;-68
2022/05/07 09:15:56;;;;;;;;;;;22.20;53.40;;;;;;5092178;28;19912;-69
2022/05/07 09:18:22;;;;;;;;;;;22.30;53.20;;;;;;5093105;28;19928;-70
2022/05/07 09:20:57;;;;;;;;;;;22.70;51.60;;;;;;5093453;28;19908;-71
2022/05/07 09:23:23;;;;;;;;;;;22.90;51.40;;;;;;5093852;28;20279;-72
2022/05/07 09:25:49;;;;;;;;;;;22.60;50.50;;;;;;5093334;28;19908;-71
2022/05/07 09:28:25;;;;;;;;;;;22.50;50.50;;;;;;5093636;28;19908;-71
2022/05/07 09:30:54;;;;;;;;;;;22.60;50.80;;;;;;5093715;28;20390;-70
2022/05/07 09:33:30;;;;;;;;;;;22.50;50.80;;;;;;5093333;28;19912;-70
2022/05/07 09:35:55;;;;;;;;;;;22.40;51.80;;;;;;5093149;28;19919;-69
2022/05/07 09:38:26;;;;;;;;;;;22.20;52.30;;;;;;5093214;28;20463;-69
2022/05/07 09:40:53;;;;;;;;;;;22.00;52.00;;;;;;5091790;28;19912;-71
2022/05/07 09:43:19;;;;;;;;;;;21.80;52.60;;;;;;5093395;28;20425;-70
2022/05/07 09:45:44;;;;;;;;;;;21.90;53.20;;;;;;5092887;28;19916;-71
2022/05/07 09:48:12;;;;;;;;;;;21.10;52.00;;;;;;5092949;28;20018;-71
2022/05/07 09:58:33;;;;;;;;;;;22.20;52.80;;;;;;5092852;28;19919;-69
2022/05/07 10:01:21;;;;;;;;;;;22.40;52.20;;;;;;5092586;28;19909;-69
2022/05/07 10:04:06;;;;;;;;;;;22.50;52.00;;;;;;5092545;28;19923;-70
2022/05/07 10:06:48;;;;;;;;;;;23.00;50.70;;;;;;5092897;28;19970;-69
2022/05/07 10:09:19;;;;;;;;;;;23.30;50.00;;;;;;5091301;28;20470;-70
2022/05/07 10:11:50;;;;;;;;;;;23.20;49.90;;;;;;5092535;28;19912;-69
2022/05/07 10:14:23;;;;;;;;;;;22.90;49.30;;;;;;5092655;28;20356;-70
2022/05/07 10:16:55;;;;;;;;;;;23.10;49.80;;;;;;5091128;28;20015;-70
2022/05/07 10:19:31;;;;;;;;;;;23.10;49.10;;;;;;5092280;28;19927;-69
2022/05/07 10:21:57;;;;;;;;;;;23.30;50.10;;;;;;5092439;28;19920;-70
2022/05/07 10:24:23;;;;;;;;;;;23.60;50.50;;;;;;5092509;28;19919;-68
2022/05/07 10:26:49;;;;;;;;;;;23.80;50.70;;;;;;5091998;28;19923;-68
2022/05/07 10:29:26;;;;;;;;;;;23.70;49.10;;;;;;5090802;28;21529;-68
2022/05/07 10:32:02;;;;;;;;;;;24.10;49.20;;;;;;5090451;28;19965;-68
2022/05/07 10:34:28;;;;;;;;;;;24.40;49.20;;;;;;5092083;28;20445;-69
2022/05/07 10:37:03;;;;;;;;;;;24.30;48.70;;;;;;5092474;28;19912;-69
2022/05/07 10:39:30;;;;;;;;;;;23.90;49.10;;;;;;5090648;28;19966;-70
2022/05/07 10:41:57;;;;;;;;;;;23.90;50.30;;;;;;5091988;28;19959;-70
2022/05/07 10:44:34;;;;;;;;;;;23.80;49.70;;;;;;5091964;28;19920;-70
2022/05/07 10:47:13;;;;;;;;;;;23.40;49.80;;;;;;5091858;28;19961;-69
2022/05/07 10:49:50;;;;;;;;;;;23.50;50.00;;;;;;5091663;28;19983;-71
2022/05/07 10:52:26;;;;;;;;;;;23.80;50.10;;;;;;5092034;28;20398;-70
2022/05/07 10:55:02;;;;;;;;;;;23.90;50.80;;;;;;5091700;28;20409;-69
2022/05/07 10:57:36;;;;;;;;;;;24.20;49.60;;;;;;5092136;28;20367;-70
2022/05/07 11:00:01;;;;;;;;;;;23.90;48.60;;;;;;5091631;28;20015;-71
2022/05/07 11:02:30;;;;;;;;;;;23.80;49.30;;;;;;5091893;28;19955;-70
2022/05/07 11:04:55;;;;;;;;;;;23.40;49.80;;;;;;5091528;28;20089;-71
2022/05/07 11:07:21;;;;;;;;;;;23.10;49.10;;;;;;5091827;28;20262;-72
2022/05/07 11:09:50;;;;;;;;;;;22.60;50.10;;;;;;5091531;28;19916;-70
2022/05/07 11:12:17;;;;;;;;;;;22.50;50.30;;;;;;5091756;28;19916;-70
2022/05/07 11:14:43;;;;;;;;;;;22.30;50.60;;;;;;5091378;28;19952;-70
2022/05/07 11:17:09;;;;;;;;;;;22.40;51.10;;;;;;5091774;28;19916;-71
2022/05/07 11:19:35;;;;;;;;;;;22.80;50.30;;;;;;5091290;28;20346;-70
2022/05/07 11:22:02;;;;;;;;;;;23.30;49.00;;;;;;5091619;28;20251;-69
2022/05/07 11:24:28;;;;;;;;;;;23.60;49.60;;;;;;5091224;28;20384;-70
2022/05/07 11:26:58;;;;;;;;;;;23.60;48.50;;;;;;5091402;28;19908;-70
2022/05/07 11:29:24;;;;;;;;;;;23.60;48.80;;;;;;5091303;28;19922;-70
2022/05/07 11:31:57;;;;;;;;;;;24.00;49.50;;;;;;5091646;28;19915;-70
2022/05/07 11:34:30;;;;;;;;;;;24.30;49.40;;;;;;5091103;28;19923;-71
2022/05/07 11:36:56;;;;;;;;;;;23.70;49.10;;;;;;5091519;28;20362;-71
2022/05/07 11:39:21;;;;;;;;;;;23.70;49.90;;;;;;5091239;28;19916;-71
2022/05/07 11:41:54;;;;;;;;;;;23.50;49.90;;;;;;5093434;28;19960;-71
2022/05/07 11:47:20;;;;;;;;;;;22.60;50.90;;;;;;5095749;28;19916;-71
2022/05/07 11:49:45;;;;;;;;;;;22.00;51.20;;;;;;5095508;28;19923;-72
2022/05/07 11:52:11;;;;;;;;;;;21.80;52.00;;;;;;5095330;28;20320;-72
2022/05/07 11:54:47;;;;;;;;;;;21.80;52.10;;;;;;5095057;28;19969;-71
2022/05/07 11:57:13;;;;;;;;;;;21.60;52.20;;;;;;5095448;28;19908;-70
2022/05/07 11:59:42;;;;;;;;;;;21.40;52.40;;;;;;5095246;28;19923;-71
2022/05/07 12:02:07;;;;;;;;;;;21.20;53.60;;;;;;5095455;28;20261;-71
2022/05/07 12:04:33;;;;;;;;;;;21.20;53.10;;;;;;5094970;28;19928;-71
2022/05/07 12:06:58;;;;;;;;;;;21.20;53.00;;;;;;5095263;28;19909;-71
2022/05/07 12:09:26;;;;;;;;;;;21.00;53.00;;;;;;5094940;28;19920;-71
2022/05/07 12:11:52;;;;;;;;;;;20.90;53.10;;;;;;5093680;28;20351;-70
2022/05/07 12:14:17;;;;;;;;;;;20.80;53.40;;;;;;5094905;28;19916;-71
2022/05/07 12:19:27;;;;;;;;;;;20.80;53.70;;;;;;5094689;28;19947;-71
2022/05/07 12:30:12;;;;;;;;;;;20.70;54.00;;;;;;5086252;28;19969;-71
2022/05/07 12:32:38;;;;;;;;;;;20.60;54.20;;;;;;5094508;28;19990;-71
2022/05/07 12:35:04;;;;;;;;;;;20.50;54.10;;;;;;5094522;28;19920;-71
2022/05/07 12:37:30;;;;;;;;;;;20.40;54.80;;;;;;5094807;28;20313;-71
2022/05/07 12:39:57;;;;;;;;;;;20.20;55.50;;;;;;5094332;28;19919;-71
2022/05/07 12:42:23;;;;;;;;;;;19.80;55.70;;;;;;5094695;28;19915;-72
2022/05/07 12:44:49;;;;;;;;;;;19.80;56.10;;;;;;5094792;28;20525;-71
2022/05/07 12:47:17;;;;;;;;;;;19.80;56.00;;;;;;5093028;28;20014;-70
2022/05/07 12:49:42;;;;;;;;;;;19.90;56.60;;;;;;5094594;28;19916;-69
2022/05/07 12:52:09;;;;;;;;;;;20.00;56.20;;;;;;5094142;28;19915;-70
2022/05/07 12:54:36;;;;;;;;;;;20.10;57.20;;;;;;5093231;28;19974;-70
2022/05/07 12:57:01;;;;;;;;;;;20.30;56.40;;;;;;5094289;28;19912;-71
2022/05/07 12:59:27;;;;;;;;;;;20.50;56.60;;;;;;5094103;28;19916;-70
2022/05/07 13:01:52;;;;;;;;;;;20.60;56.50;;;;;;5094140;28;19954;-71
2022/05/07 13:04:20;;;;;;;;;;;20.70;55.90;;;;;;5093938;28;20291;-71
2022/05/07 13:06:45;;;;;;;;;;;20.80;54.90;;;;;;5093927;28;19916;-71
2022/05/07 13:09:11;;;;;;;;;;;20.90;54.90;;;;;;5094176;28;19920;-70
2022/05/07 13:11:36;;;;;;;;;;;21.00;54.50;;;;;;5093869;28;20237;-71
2022/05/07 13:14:02;;;;;;;;;;;21.00;54.10;;;;;;5093630;28;19916;-70
2022/05/07 13:16:27;;;;;;;;;;;21.00;54.60;;;;;;5093915;28;19999;-70
2022/05/07 13:18:53;;;;;;;;;;;21.00;55.20;;;;;;5093544;28;19979;-70
2022/05/07 13:21:18;;;;;;;;;;;20.90;54.50;;;;;;5093590;28;19916;-71
2022/05/07 13:23:44;;;;;;;;;;;20.80;55.10;;;;;;5093511;28;20322;-70
2022/05/07 13:26:09;;;;;;;;;;;20.80;54.70;;;;;;5091930;28;19916;-70
2022/05/07 13:28:35;;;;;;;;;;;20.10;54.50;;;;;;5093549;28;20372;-71
2022/05/07 13:31:00;;;;;;;;;;;20.60;55.00;;;;;;5093551;28;19908;-71
2022/05/07 13:33:26;;;;;;;;;;;20.50;54.50;;;;;;5093426;28;20296;-71
2022/05/07 13:35:53;;;;;;;;;;;20.40;54.50;;;;;;5093211;28;20002;-70
2022/05/07 13:38:18;;;;;;;;;;;20.30;55.00;;;;;;5093309;28;19916;-71
2022/05/07 13:40:44;;;;;;;;;;;20.30;54.70;;;;;;5093033;28;19931;-70
2022/05/07 13:43:10;;;;;;;;;;;20.40;54.70;;;;;;5093415;28;19916;-71
2022/05/07 13:45:37;;;;;;;;;;;20.40;54.90;;;;;;5093187;28;19916;-70
2022/05/07 13:48:02;;;;;;;;;;;20.40;54.40;;;;;;5093437;28;19912;-70
2022/05/07 13:50:28;;;;;;;;;;;20.30;54.60;;;;;;5093111;28;20291;-71
2022/05/07 13:52:53;;;;;;;;;;;20.30;54.50;;;;;;5093300;28;20003;-70
2022/05/07 13:55:19;;;;;;;;;;;20.20;54.80;;;;;;5091600;28;19920;-71
2022/05/07 13:57:44;;;;;;;;;;;20.20;54.70;;;;;;5091395;28;19912;-71
2022/05/07 14:00:12;;;;;;;;;;;20.30;55.30;;;;;;5091617;28;20309;-71
2022/05/07 14:02:39;;;;;;;;;;;20.20;55.50;;;;;;5093100;28;20366;-71
2022/05/07 14:05:05;;;;;;;;;;;20.20;55.40;;;;;;5092746;28;19943;-71
2022/05/07 14:07:31;;;;;;;;;;;20.20;55.40;;;;;;5091669;28;19916;-70
2022/05/07 14:09:57;;;;;;;;;;;20.20;55.50;;;;;;5092766;28;20287;-71
2022/05/07 14:12:22;;;;;;;;;;;20.10;56.00;;;;;;5092801;28;19963;-71
2022/05/07 14:14:48;;;;;;;;;;;20.10;56.20;;;;;;5092921;28;19920;-71
2022/05/07 14:17:14;;;;;;;;;;;20.20;55.60;;;;;;5092541;28;19912;-71
2022/05/07 14:19:40;;;;;;;;;;;20.10;55.60;;;;;;5092645;28;19912;-71
2022/05/07 14:22:06;;;;;;;;;;;20.10;55.80;;;;;;5092637;28;19938;-71
2022/05/07 14:24:31;;;;;;;;;;;20.20;55.80;;;;;;5092613;28;19916;-71
2022/05/07 14:26:57;;;;;;;;;;;20.20;55.60;;;;;;5092435;28;20032;-72
2022/05/07 14:29:23;;;;;;;;;;;20.10;55.90;;;;;;5092462;28;19939;-71
2022/05/07 14:31:50;;;;;;;;;;;20.10;56.10;;;;;;5092424;28;19912;-73
2022/05/07 14:34:16;;;;;;;;;;;20.00;56.20;;;;;;5092191;28;19965;-69
2022/05/07 14:36:42;;;;;;;;;;;19.90;56.30;;;;;;5092321;28;20399;-72
2022/05/07 14:39:07;;;;;;;;;;;19.90;56.00;;;;;;5092256;28;19923;-70
2022/05/07 14:41:33;;;;;;;;;;;19.90;56.10;;;;;;5090765;28;19981;-70
2022/05/07 14:43:59;;;;;;;;;;;19.90;56.10;;;;;;5091985;28;20003;-70
2022/05/07 14:46:24;;;;;;;;;;;19.90;56.20;;;;;;5092146;28;19912;-71
2022/05/07 14:48:50;;;;;;;;;;;19.80;56.60;;;;;;5090595;28;20318;-72
2022/05/07 14:51:16;;;;;;;;;;;19.80;56.60;;;;;;5092213;28;20336;-71